Time;durP1;ratioP1;P1;durP2;ratioP2;P2;SDS_P1;SDS_P2;PMS_P1;PMS_P2;Temp;Humidity;BMP_temperature;BMP_pressure;BME280_temperature;BME280_humidity;BME280_pressure;Samples;Min_cycle;Max_cycle;Signal;HPM_P1;HPM_P2
2022/05/04 00:01:33;;;;;;;4.10;1.55;;;17.50;49.80;;;;;;4932074;28;94010;-65
2022/05/04 00:03:59;;;;;;;5.22;2.00;;;17.50;49.80;;;;;;4933966;28;92942;-65
2022/05/04 00:06:26;;;;;;;4.70;1.70;;;17.40;49.60;;;;;;4933077;28;92549;-65
2022/05/04 00:08:52;;;;;;;2.97;1.45;;;17.40;50.30;;;;;;4932555;28;94734;-65
2022/05/04 00:11:18;;;;;;;3.60;1.52;;;17.40;49.70;;;;;;4933020;28;94208;-65
2022/05/04 00:13:43;;;;;;;4.85;1.70;;;17.40;49.70;;;;;;4932795;28;92842;-65
2022/05/04 00:16:09;;;;;;;3.88;1.35;;;17.40;49.70;;;;;;4933182;28;92898;-65
2022/05/04 00:18:35;;;;;;;2.83;1.42;;;17.40;49.70;;;;;;4930690;28;96404;-65
2022/05/04 00:21:00;;;;;;;5.50;1.80;;;17.40;49.80;;;;;;4932123;28;95140;-65
2022/05/04 00:23:26;;;;;;;3.75;1.50;;;17.40;49.80;;;;;;4932211;28;94263;-65
2022/05/04 00:25:52;;;;;;;4.18;1.52;;;17.40;49.70;;;;;;4932772;28;92496;-65
2022/05/04 00:28:18;;;;;;;4.88;1.70;;;17.40;49.70;;;;;;4931928;28;93129;-64
2022/05/04 00:30:43;;;;;;;4.00;1.45;;;17.40;49.80;;;;;;4932062;28;93906;-64
2022/05/04 00:33:09;;;;;;;2.88;1.38;;;17.40;49.70;;;;;;4931599;28;93030;-65
2022/05/04 00:35:35;;;;;;;6.30;1.83;;;17.40;49.70;;;;;;4933640;28;91761;-65
2022/05/04 00:38:01;;;;;;;4.07;1.90;;;17.40;49.70;;;;;;4931757;28;94150;-64
2022/05/04 00:40:27;;;;;;;4.82;1.70;;;17.40;49.80;;;;;;4931555;28;94549;-65
2022/05/04 00:42:53;;;;;;;3.80;1.55;;;17.40;49.90;;;;;;4932004;28;95358;-65
2022/05/04 00:45:18;;;;;;;5.25;1.63;;;17.40;50.80;;;;;;4933236;28;92647;-64
2022/05/04 00:47:44;;;;;;;3.65;1.60;;;17.40;49.80;;;;;;4932554;28;94426;-65
2022/05/04 00:50:10;;;;;;;5.82;1.73;;;17.30;49.80;;;;;;4932903;28;93788;-64
2022/05/04 00:52:41;;;;;;;6.30;1.77;;;17.40;49.90;;;;;;4932888;28;93008;-64
2022/05/04 00:55:08;;;;;;;4.35;1.48;;;17.40;49.90;;;;;;4932428;28;92573;-65
2022/05/04 01:00:24;;;;;;;3.80;1.38;;;17.30;49.80;;;;;;4932488;28;92978;-65
2022/05/04 01:02:50;;;;;;;3.85;1.73;;;17.30;49.90;;;;;;4932319;28;92601;-65
2022/05/04 01:05:17;;;;;;;4.13;1.75;;;17.30;49.90;;;;;;4932344;28;93090;-65
2022/05/04 01:07:44;;;;;;;3.67;1.42;;;17.30;49.80;;;;;;4930248;28;95898;-65
2022/05/04 01:10:11;;;;;;;2.15;1.00;;;17.30;49.80;;;;;;4931937;28;96293;-65
2022/05/04 01:12:51;;;;;;;4.68;2.17;;;17.30;49.90;;;;;;4931918;28;92852;-63
2022/05/04 01:15:19;;;;;;;4.03;1.33;;;17.30;49.90;;;;;;4932361;28;92504;-64
2022/05/04 01:17:45;;;;;;;4.43;1.58;;;17.30;49.90;;;;;;4931456;28;94228;-64
2022/05/04 01:20:12;;;;;;;3.75;1.63;;;17.30;49.90;;;;;;4930817;28;93499;-65
2022/05/04 01:22:38;;;;;;;5.60;1.83;;;17.30;49.90;;;;;;4931476;28;92811;-65
2022/05/04 01:25:05;;;;;;;4.03;1.58;;;17.30;49.90;;;;;;4932321;28;92072;-65
2022/05/04 01:27:31;;;;;;;4.60;1.70;;;17.30;49.80;;;;;;4931101;28;96576;-64
2022/05/04 01:29:56;;;;;;;3.65;1.50;;;17.30;49.90;;;;;;4931165;28;94930;-65
2022/05/04 01:32:22;;;;;;;4.13;1.67;;;17.30;49.90;;;;;;4930567;28;95246;-65
2022/05/04 01:34:47;;;;;;;4.85;1.52;;;17.30;49.90;;;;;;4930605;28;93043;-65
2022/05/04 01:37:13;;;;;;;4.03;1.60;;;17.30;49.80;;;;;;4931359;28;93813;-64
2022/05/04 01:39:39;;;;;;;3.90;1.50;;;17.20;49.80;;;;;;4930671;28;93756;-65
2022/05/04 01:42:05;;;;;;;3.83;1.75;;;17.20;49.80;;;;;;4931776;28;92969;-66
2022/05/04 01:44:34;;;;;;;3.92;1.45;;;17.20;49.70;;;;;;4931962;28;92465;-65
2022/05/04 01:47:00;;;;;;;5.75;1.90;;;17.20;49.80;;;;;;4931442;28;94046;-65
2022/05/04 01:49:26;;;;;;;3.03;1.33;;;17.20;49.90;;;;;;4930302;28;94306;-65
2022/05/04 01:51:52;;;;;;;3.08;1.30;;;17.20;49.80;;;;;;4932199;28;93239;-64
2022/05/04 01:54:18;;;;;;;4.88;1.30;;;17.30;49.90;;;;;;4930711;28;92577;-66
2022/05/04 01:56:43;;;;;;;6.30;1.73;;;17.20;49.80;;;;;;4929905;28;96396;-66
2022/05/04 01:59:09;;;;;;;4.60;1.58;;;17.20;49.80;;;;;;4930545;28;96566;-65
2022/05/04 02:01:39;;;;;;;6.05;1.67;;;17.20;49.80;;;;;;4932457;28;92426;-65
2022/05/04 02:04:05;;;;;;;4.03;2.00;;;17.20;49.70;;;;;;4933161;28;92895;-64
2022/05/04 02:06:31;;;;;;;3.10;1.67;;;17.20;49.80;;;;;;4931771;28;93807;-65
2022/05/04 02:08:58;;;;;;;4.45;1.75;;;17.20;49.70;;;;;;4931846;28;93616;-65
2022/05/04 02:11:24;;;;;;;3.70;1.55;;;17.20;49.70;;;;;;4931167;28;92984;-66
2022/05/04 02:13:50;;;;;;;5.03;1.80;;;17.20;49.80;;;;;;4931843;28;91727;-65
2022/05/04 02:16:16;;;;;;;4.38;1.50;;;17.20;49.80;;;;;;4931497;28;94655;-64
2022/05/04 02:18:42;;;;;;;3.42;1.58;;;17.20;49.80;;;;;;4930428;28;93049;-64
2022/05/04 02:21:09;;;;;;;3.08;1.40;;;17.20;49.60;;;;;;4930093;28;95134;-64
2022/05/04 02:23:35;;;;;;;2.90;1.17;;;17.20;49.70;;;;;;4930990;28;92560;-65
2022/05/04 02:26:00;;;;;;;5.10;1.75;;;17.20;49.70;;;;;;4931296;28;94260;-64
2022/05/04 02:28:27;;;;;;;4.05;1.58;;;17.20;49.80;;;;;;4930434;28;92700;-65
2022/05/04 02:30:52;;;;;;;3.92;1.52;;;17.20;49.60;;;;;;4931071;28;93129;-64
2022/05/04 02:33:18;;;;;;;4.57;1.55;;;17.20;49.60;;;;;;4931043;28;93008;-64
2022/05/04 02:38:28;;;;;;;3.25;1.45;;;17.10;49.70;;;;;;4931176;28;92299;-64
2022/05/04 02:40:54;;;;;;;6.43;1.95;;;17.10;49.70;;;;;;4930227;28;92465;-64
2022/05/04 02:43:19;;;;;;;4.68;1.50;;;17.10;49.60;;;;;;4931026;28;94040;-65
2022/05/04 02:45:45;;;;;;;4.65;1.65;;;17.10;49.50;;;;;;4929147;28;100652;-64
2022/05/04 02:48:10;;;;;;;3.25;1.50;;;17.10;49.50;;;;;;4930969;28;96566;-65
2022/05/04 02:50:36;;;;;;;4.28;1.77;;;17.10;49.70;;;;;;4930155;28;92513;-65
2022/05/04 02:53:04;;;;;;;3.05;1.35;;;17.10;49.60;;;;;;4913146;28;92627;-65
2022/05/04 02:55:30;;;;;;;4.32;1.70;;;17.10;49.70;;;;;;4929535;28;94634;-64
2022/05/04 02:57:56;;;;;;;4.75;1.42;;;17.10;49.60;;;;;;4931289;28;94369;-65
2022/05/04 03:00:21;;;;;;;3.47;1.50;;;17.10;49.70;;;;;;4930587;28;93020;-65
2022/05/04 03:02:47;;;;;;;4.50;1.63;;;17.10;49.50;;;;;;4935059;28;91869;-66
2022/05/04 03:05:14;;;;;;;4.57;1.42;;;17.10;49.60;;;;;;4933230;28;94306;-65
2022/05/04 03:07:40;;;;;;;3.30;1.45;;;17.10;49.60;;;;;;4934464;28;93834;-65
2022/05/04 03:10:06;;;;;;;3.92;1.60;;;17.10;49.70;;;;;;4933098;28;94947;-64
2022/05/04 03:12:31;;;;;;;4.93;1.65;;;17.10;49.50;;;;;;4916050;28;92770;-64
2022/05/04 03:14:57;;;;;;;3.10;1.48;;;17.10;49.60;;;;;;4932846;28;94439;-65
2022/05/04 04:18:37;;;;;;;4.53;1.60;;;16.90;49.50;;;;;;5139872;22;99469;-66
2022/05/04 04:23:48;;;;;;;5.65;1.85;;;16.90;49.60;;;;;;4953672;28;92671;-65
2022/05/04 04:26:14;;;;;;;4.97;1.70;;;16.90;49.50;;;;;;4953634;28;95784;-65
2022/05/04 04:28:40;;;;;;;3.72;1.60;;;16.90;49.50;;;;;;4953190;28;92590;-65
2022/05/04 04:31:08;;;;;;;4.22;1.67;;;17.00;49.40;;;;;;4952249;28;92546;-65
2022/05/04 04:33:34;;;;;;;4.35;1.80;;;16.90;49.30;;;;;;4950940;28;97173;-65
2022/05/04 04:36:00;;;;;;;3.45;1.70;;;16.90;49.40;;;;;;4952252;28;96304;-67
2022/05/04 04:38:27;;;;;;;4.65;1.67;;;16.90;49.30;;;;;;4952531;28;92858;-65
2022/05/04 04:40:53;;;;;;;4.03;1.63;;;16.90;49.30;;;;;;4952408;28;92581;-65
2022/05/04 04:43:19;;;;;;;4.55;1.90;;;17.00;49.30;;;;;;4952824;28;93109;-65
2022/05/04 04:45:45;;;;;;;3.55;1.75;;;16.90;49.20;;;;;;4952115;28;93894;-65
2022/05/04 04:48:12;;;;;;;3.08;2.13;;;17.00;49.20;;;;;;4952516;28;92533;-63
2022/05/04 04:50:37;;;;;;;4.53;1.58;;;16.90;49.20;;;;;;4951924;28;91778;-63
2022/05/04 04:53:03;;;;;;;5.07;2.00;;;16.90;49.20;;;;;;4952470;28;94586;-62
2022/05/04 04:55:29;;;;;;;3.10;1.60;;;17.00;49.20;;;;;;4951889;28;94467;-63
2022/05/04 04:57:55;;;;;;;4.63;1.65;;;16.90;49.10;;;;;;4951608;28;95656;-63
2022/05/04 05:00:21;;;;;;;3.63;1.40;;;17.00;49.20;;;;;;4952137;28;93301;-65
2022/05/04 05:02:47;;;;;;;4.22;1.73;;;16.90;49.20;;;;;;4952131;28;92962;-64
2022/05/04 05:05:12;;;;;;;3.20;1.50;;;16.90;49.20;;;;;;4952046;28;95020;-64
2022/05/04 05:07:38;;;;;;;4.57;1.73;;;16.90;49.20;;;;;;4951898;28;95174;-64
2022/05/04 05:10:05;;;;;;;5.00;1.83;;;16.90;49.10;;;;;;4952057;28;92587;-64
2022/05/04 05:12:31;;;;;;;3.20;1.80;;;16.90;49.10;;;;;;4951739;28;93497;-65
2022/05/04 05:17:40;;;;;;;4.90;1.77;;;16.90;49.10;;;;;;4952269;28;92673;-64
2022/05/04 05:20:07;;;;;;;4.00;1.90;;;16.90;49.10;;;;;;4951364;28;92613;-64
2022/05/04 05:22:32;;;;;;;5.93;1.75;;;16.90;49.10;;;;;;4950114;28;96640;-65
2022/05/04 05:24:58;;;;;;;4.07;1.70;;;16.90;49.10;;;;;;4950969;28;96198;-64
2022/05/04 05:27:23;;;;;;;3.90;1.65;;;16.90;49.00;;;;;;4951478;28;93084;-64
2022/05/04 05:29:50;;;;;;;4.75;1.90;;;16.90;49.00;;;;;;4951692;28;93259;-64
2022/05/04 05:32:16;;;;;;;3.70;1.63;;;16.90;49.00;;;;;;4951376;28;94216;-64
2022/05/04 05:34:42;;;;;;;4.00;1.60;;;16.90;49.00;;;;;;4951049;28;94247;-64
2022/05/04 05:37:07;;;;;;;3.75;1.67;;;16.90;49.10;;;;;;4952025;28;92971;-64
2022/05/04 05:39:33;;;;;;;4.38;1.85;;;16.90;49.10;;;;;;4951674;28;92219;-64
2022/05/04 05:41:59;;;;;;;4.20;1.60;;;16.90;49.10;;;;;;4951903;28;94177;-67
2022/05/04 05:44:25;;;;;;;3.03;1.58;;;16.90;49.10;;;;;;4951468;28;94228;-65
2022/05/04 05:46:50;;;;;;;3.97;1.70;;;16.90;50.10;;;;;;4950569;28;95538;-65
2022/05/04 05:49:16;;;;;;;3.60;1.55;;;16.90;49.00;;;;;;4952225;28;92410;-65
2022/05/04 05:51:42;;;;;;;3.30;1.50;;;16.90;49.00;;;;;;4951107;28;95757;-64
2022/05/04 05:54:07;;;;;;;3.30;1.80;;;16.90;49.10;;;;;;4950954;28;93883;-65
2022/05/04 05:56:33;;;;;;;5.25;1.75;;;16.90;49.00;;;;;;4952597;28;92692;-65
2022/05/04 05:58:59;;;;;;;3.00;1.70;;;16.90;49.00;;;;;;4951727;28;92912;-65
2022/05/04 06:01:24;;;;;;;4.70;1.60;;;16.90;49.00;;;;;;4951645;28;94360;-64
2022/05/04 06:03:52;;;;;;;5.22;1.60;;;16.90;49.00;;;;;;4951079;28;95219;-65
2022/05/04 06:06:18;;;;;;;4.03;1.80;;;16.90;49.00;;;;;;4951496;28;93025;-64
2022/05/04 06:08:43;;;;;;;4.90;1.60;;;17.10;48.80;;;;;;4951340;28;92570;-65
2022/05/04 06:11:10;;;;;;;3.35;1.60;;;17.20;48.50;;;;;;4949959;28;96512;-66
2022/05/04 06:13:35;;;;;;;2.80;1.48;;;17.40;48.20;;;;;;4950519;28;96305;-65
2022/05/04 06:16:01;;;;;;;3.65;1.65;;;17.50;47.90;;;;;;4950727;28;92905;-65
2022/05/04 06:18:27;;;;;;;4.63;1.70;;;17.60;47.80;;;;;;4950628;28;92838;-65
2022/05/04 06:20:53;;;;;;;4.82;1.65;;;17.80;47.50;;;;;;4951341;28;94188;-64
2022/05/04 06:23:19;;;;;;;4.10;1.40;;;17.90;47.10;;;;;;4951544;28;93017;-66
2022/05/04 06:25:45;;;;;;;4.10;1.30;;;18.10;47.00;;;;;;4951413;28;93096;-65
2022/05/04 06:28:12;;;;;;;2.55;1.50;;;18.20;46.70;;;;;;4951215;28;92062;-65
2022/05/04 06:36:06;;;;;;;2.55;1.25;;;18.40;46.20;;;;;;4948323;28;95265;-65
2022/05/04 06:38:31;;;;;;;2.45;1.15;;;18.50;46.00;;;;;;4950266;28;93024;-65
2022/05/04 06:40:57;;;;;;;4.30;1.58;;;18.50;45.90;;;;;;4950443;28;98368;-64
2022/05/04 06:43:23;;;;;;;5.15;1.50;;;18.60;45.90;;;;;;4950613;28;93866;-65
2022/05/04 06:45:49;;;;;;;3.80;1.48;;;18.60;45.80;;;;;;4950760;28;92817;-65
2022/05/04 06:48:14;;;;;;;4.47;1.50;;;18.60;45.80;;;;;;4950713;28;92561;-65
2022/05/04 06:50:40;;;;;;;2.30;1.10;;;18.60;45.80;;;;;;4951052;28;93106;-65
2022/05/04 06:53:06;;;;;;;2.85;1.20;;;18.60;45.80;;;;;;4951386;28;93932;-65
2022/05/04 06:55:31;;;;;;;3.10;1.23;;;18.60;45.80;;;;;;4951031;28;92448;-65
2022/05/04 06:57:57;;;;;;;3.28;1.40;;;18.60;45.70;;;;;;4950482;28;92805;-65
2022/05/04 07:00:22;;;;;;;2.53;1.20;;;18.60;45.70;;;;;;4948900;28;96404;-65
2022/05/04 07:02:48;;;;;;;3.25;1.38;;;18.60;45.80;;;;;;4950119;28;96165;-64
2022/05/04 07:05:14;;;;;;;2.63;1.10;;;18.60;45.90;;;;;;4950978;28;93079;-65
2022/05/04 07:07:39;;;;;;;3.78;1.70;;;18.60;45.90;;;;;;4950027;28;92647;-65
2022/05/04 07:10:05;;;;;;;2.15;1.30;;;18.50;46.00;;;;;;4950167;28;97582;-65
2022/05/04 07:12:31;;;;;;;4.13;1.58;;;18.50;46.00;;;;;;4931795;28;94933;-65
2022/05/04 07:14:56;;;;;;;3.38;1.33;;;18.50;46.00;;;;;;4950230;28;92552;-65
2022/05/04 07:17:23;;;;;;;3.78;1.35;;;18.50;46.10;;;;;;4949828;28;93166;-64
2022/05/04 07:19:48;;;;;;;3.88;1.58;;;18.40;46.10;;;;;;4949760;28;94771;-65
2022/05/04 07:22:14;;;;;;;3.92;1.52;;;18.40;46.10;;;;;;4950229;28;94207;-65
2022/05/04 07:24:40;;;;;;;3.17;1.40;;;18.40;46.20;;;;;;4948769;28;95080;-65
2022/05/04 07:27:08;;;;;;;3.65;1.40;;;18.40;46.30;;;;;;4949656;28;93065;-65
2022/05/04 07:29:34;;;;;;;3.80;1.45;;;18.30;46.30;;;;;;4950616;28;94219;-65
2022/05/04 07:32:03;;;;;;;3.72;1.50;;;18.30;46.30;;;;;;4932113;28;95802;-65
2022/05/04 07:34:30;;;;;;;2.65;1.42;;;18.30;46.40;;;;;;4951408;28;92767;-65
2022/05/04 07:36:58;;;;;;;3.45;1.40;;;18.20;46.40;;;;;;4949636;28;93020;-65
2022/05/04 07:42:21;;;;;;;3.20;1.40;;;18.20;46.50;;;;;;4949862;28;92955;-65
2022/05/04 07:44:48;;;;;;;3.72;1.38;;;18.20;46.50;;;;;;4949856;28;92594;-66
2022/05/04 07:47:13;;;;;;;4.95;1.63;;;18.20;46.70;;;;;;4934324;28;92911;-65
2022/05/04 07:49:39;;;;;;;2.33;1.30;;;18.10;46.60;;;;;;4952120;28;95597;-66
2022/05/04 07:52:05;;;;;;;2.45;1.20;;;18.10;46.60;;;;;;4936101;28;96670;-65
2022/05/04 07:54:31;;;;;;;3.15;1.40;;;18.10;46.60;;;;;;4953236;28;92987;-66
2022/05/04 07:56:57;;;;;;;3.85;1.58;;;18.10;46.60;;;;;;4952807;28;92776;-65
2022/05/04 07:59:22;;;;;;;4.50;1.88;;;18.10;46.70;;;;;;4953724;28;93160;-66
2022/05/04 08:04:34;;;;;;;3.85;1.80;;;18.00;46.70;;;;;;4952797;28;93053;-66
2022/05/04 08:07:00;;;;;;;2.83;1.33;;;18.00;46.70;;;;;;4953494;28;92116;-64
2022/05/04 08:09:26;;;;;;;4.78;1.52;;;18.00;46.70;;;;;;4953300;28;94905;-64
2022/05/04 08:11:51;;;;;;;3.25;1.45;;;18.00;46.80;;;;;;4953531;28;93689;-64
2022/05/04 08:14:18;;;;;;;2.20;1.13;;;18.00;46.80;;;;;;4951217;28;99664;-64
2022/05/04 08:16:44;;;;;;;3.30;1.52;;;18.00;46.90;;;;;;4953325;28;93049;-66
2022/05/04 08:19:09;;;;;;;3.35;1.60;;;17.90;46.80;;;;;;4952486;28;93118;-65
2022/05/04 08:21:37;;;;;;;4.43;1.50;;;18.00;46.90;;;;;;4953225;28;93215;-65
2022/05/04 08:24:04;;;;;;;3.50;1.60;;;17.90;46.90;;;;;;4952517;28;92651;-65
2022/05/04 08:26:29;;;;;;;3.20;1.50;;;17.90;46.90;;;;;;4953579;28;93071;-65
2022/05/04 08:28:55;;;;;;;3.75;1.55;;;17.90;46.90;;;;;;4952567;28;94619;-65
2022/05/04 08:31:24;;;;;;;2.78;1.42;;;17.90;46.90;;;;;;4952828;28;93926;-65
2022/05/04 08:33:50;;;;;;;3.60;1.58;;;17.90;46.90;;;;;;4951661;28;92592;-65
2022/05/04 08:36:16;;;;;;;3.83;1.63;;;17.90;47.90;;;;;;4952825;28;92616;-65
2022/05/04 08:38:42;;;;;;;3.28;1.27;;;17.90;46.90;;;;;;4951771;28;95521;-65
2022/05/04 08:41:08;;;;;;;3.17;1.80;;;17.90;46.90;;;;;;4953764;28;95109;-65
2022/05/04 08:43:34;;;;;;;3.35;1.30;;;17.80;46.80;;;;;;4953276;28;92625;-65
2022/05/04 08:46:02;;;;;;;3.75;1.60;;;17.80;46.90;;;;;;4952639;28;92706;-65
2022/05/04 08:48:31;;;;;;;4.18;1.60;;;17.80;46.90;;;;;;4952109;28;93621;-65
2022/05/04 08:51:01;;;;;;;2.45;1.45;;;17.80;46.90;;;;;;4934364;28;96252;-65
2022/05/04 08:53:27;;;;;;;3.83;1.77;;;17.80;46.80;;;;;;4951823;28;92528;-65
2022/05/04 08:55:54;;;;;;;3.75;1.80;;;17.80;46.90;;;;;;4952817;28;92141;-65
2022/05/04 08:58:19;;;;;;;4.05;1.65;;;17.80;46.90;;;;;;4951038;28;93288;-67
2022/05/04 09:00:45;;;;;;;3.40;1.70;;;17.80;46.80;;;;;;4952224;28;93851;-65
2022/05/04 09:03:11;;;;;;;4.80;1.85;;;17.70;46.80;;;;;;4951028;28;95234;-65
2022/05/04 09:05:45;;;;;;;3.53;1.50;;;17.80;46.90;;;;;;4951790;28;92754;-65
2022/05/04 09:08:11;;;;;;;3.55;1.63;;;17.70;46.80;;;;;;4951541;28;93627;-65
2022/05/04 09:10:38;;;;;;;3.70;1.58;;;17.70;47.00;;;;;;4951743;28;93810;-65
2022/05/04 09:13:05;;;;;;;2.95;1.40;;;17.70;47.00;;;;;;4952397;28;92522;-65
2022/05/04 09:15:35;;;;;;;3.00;1.48;;;17.80;47.00;;;;;;4951643;28;92940;-65
2022/05/04 09:18:09;;;;;;;5.72;2.10;;;17.70;47.00;;;;;;4950968;28;92831;-65
2022/05/04 09:20:49;;;;;;;4.25;1.70;;;17.70;47.00;;;;;;4950903;28;95807;-65
2022/05/04 09:23:30;;;;;;;3.40;1.40;;;17.70;48.00;;;;;;4951861;28;93840;-65
2022/05/04 09:25:58;;;;;;;2.78;1.55;;;17.70;47.00;;;;;;4952170;28;92722;-66
2022/05/04 09:28:26;;;;;;;3.15;1.55;;;17.70;47.10;;;;;;4950037;28;96659;-65
2022/05/04 09:31:00;;;;;;;3.15;1.60;;;17.70;47.10;;;;;;4951397;28;96380;-66
2022/05/04 09:33:32;;;;;;;3.58;1.60;;;17.70;47.20;;;;;;4950987;28;92534;-65
2022/05/04 09:35:59;;;;;;;4.30;1.67;;;17.70;47.20;;;;;;4951885;28;92720;-65
2022/05/04 09:46:49;;;;;;;4.53;1.58;;;17.70;47.30;;;;;;4953449;28;91793;-65
2022/05/04 09:49:17;;;;;;;2.97;1.50;;;17.70;47.40;;;;;;4951827;28;94192;-65
2022/05/04 09:51:49;;;;;;;4.05;1.48;;;17.70;47.30;;;;;;4951524;28;93843;-66
2022/05/04 09:54:27;;;;;;;3.38;1.55;;;17.70;47.40;;;;;;4951570;28;94950;-65
2022/05/04 09:56:57;;;;;;;2.90;1.42;;;17.70;47.30;;;;;;4952296;28;92860;-65
2022/05/04 09:59:26;;;;;;;3.40;1.75;;;17.70;47.30;;;;;;4951983;28;94615;-65
2022/05/04 10:01:52;;;;;;;3.78;1.60;;;17.70;47.20;;;;;;4951480;28;94392;-65
2022/05/04 10:04:20;;;;;;;3.83;1.55;;;17.70;47.10;;;;;;4951318;28;92506;-66
2022/05/04 10:06:48;;;;;;;4.68;1.80;;;17.70;47.00;;;;;;4951826;28;92807;-67
2022/05/04 10:09:14;;;;;;;4.32;2.05;;;17.70;47.10;;;;;;4951813;28;95428;-65
2022/05/04 10:11:39;;;;;;;2.72;1.60;;;17.70;47.00;;;;;;4950981;28;93534;-65
2022/05/04 10:14:12;;;;;;;3.78;1.70;;;17.80;47.00;;;;;;4951932;28;92569;-65
2022/05/04 10:17:05;;;;;;;2.70;1.55;;;17.80;47.00;;;;;;4951810;28;92749;-64
2022/05/04 10:19:49;;;;;;;5.15;2.05;;;17.80;47.00;;;;;;4948525;28;97304;-64
2022/05/04 10:22:39;;;;;;;3.47;1.55;;;17.80;46.90;;;;;;4951483;28;96771;-64
2022/05/04 10:25:05;;;;;;;4.03;1.77;;;17.80;46.80;;;;;;4950486;28;93227;-64
2022/05/04 10:27:31;;;;;;;3.42;1.70;;;17.80;46.90;;;;;;4951060;28;92573;-65
2022/05/04 10:32:51;;;;;;;3.70;1.63;;;17.90;46.80;;;;;;4950583;28;92673;-64
2022/05/04 10:35:21;;;;;;;2.40;1.55;;;17.90;46.80;;;;;;4950785;28;92499;-64
2022/05/04 10:37:59;;;;;;;2.90;1.65;;;17.90;46.80;;;;;;4950463;28;92279;-64
2022/05/04 10:40:38;;;;;;;4.38;1.70;;;17.90;46.80;;;;;;4950113;28;93336;-64
2022/05/04 10:43:04;;;;;;;3.78;2.00;;;18.00;47.00;;;;;;4950264;28;93835;-64
2022/05/04 10:45:38;;;;;;;4.03;2.00;;;17.90;47.00;;;;;;4949075;28;95013;-64
2022/05/04 10:48:13;;;;;;;3.58;1.70;;;17.90;46.90;;;;;;4952117;28;92514;-64
2022/05/04 10:51:03;;;;;;;3.35;1.60;;;17.90;46.90;;;;;;4951631;28;94053;-64
2022/05/04 10:53:29;;;;;;;3.63;1.80;;;17.90;46.90;;;;;;4950433;28;93826;-64
2022/05/04 10:56:07;;;;;;;4.43;1.80;;;17.90;47.00;;;;;;4951170;28;92514;-65
2022/05/04 10:58:39;;;;;;;3.83;1.80;;;17.90;47.00;;;;;;4950127;28;92597;-64
2022/05/04 11:01:06;;;;;;;3.08;1.50;;;17.90;47.00;;;;;;4950000;28;94154;-64
2022/05/04 11:03:35;;;;;;;2.65;1.75;;;17.90;47.10;;;;;;4950181;28;94210;-64
2022/05/04 11:06:27;;;;;;;4.05;1.73;;;18.00;47.20;;;;;;4950208;28;92542;-66
2022/05/04 11:08:56;;;;;;;3.03;1.60;;;18.00;47.20;;;;;;4939991;28;93045;-64
2022/05/04 11:11:23;;;;;;;2.97;1.60;;;17.90;47.20;;;;;;4948417;28;96301;-64
2022/05/04 11:13:49;;;;;;;3.22;1.83;;;18.00;47.30;;;;;;4949726;28;97285;-65
2022/05/04 11:16:15;;;;;;;3.58;1.77;;;18.00;47.30;;;;;;4949745;28;93072;-65
2022/05/04 11:18:41;;;;;;;3.28;1.95;;;18.00;47.30;;;;;;4949410;28;92560;-67
2022/05/04 11:21:11;;;;;;;4.13;1.98;;;18.00;47.30;;;;;;4949547;28;93168;-65
2022/05/04 11:23:38;;;;;;;3.75;1.70;;;18.00;47.30;;;;;;4952237;28;93955;-65
2022/05/04 11:26:04;;;;;;;3.90;1.73;;;18.00;47.30;;;;;;4953640;28;92960;-65
2022/05/04 11:28:30;;;;;;;4.57;2.00;;;18.00;47.30;;;;;;4954009;28;91987;-65
2022/05/04 11:30:56;;;;;;;3.03;1.92;;;18.00;47.40;;;;;;4953105;28;101112;-65
2022/05/04 11:33:21;;;;;;;3.03;1.80;;;18.00;47.30;;;;;;4953051;28;94529;-65
2022/05/04 11:35:54;;;;;;;4.15;1.83;;;18.00;47.30;;;;;;4951792;28;95278;-65
2022/05/04 11:38:23;;;;;;;3.67;1.83;;;18.00;47.30;;;;;;4953336;28;92844;-65
2022/05/04 11:40:50;;;;;;;4.05;2.00;;;18.00;47.50;;;;;;4952785;28;103754;-65
2022/05/04 11:43:42;;;;;;;3.67;1.80;;;18.00;47.50;;;;;;4953770;28;93328;-64
2022/05/04 11:46:10;;;;;;;3.58;1.67;;;18.00;47.50;;;;;;4948462;28;93950;-64
2022/05/04 11:48:44;;;;;;;3.00;1.70;;;18.00;47.60;;;;;;4953141;28;92894;-65
2022/05/04 11:51:16;;;;;;;3.58;1.83;;;18.00;47.60;;;;;;4952831;28;94289;-64
2022/05/04 11:53:41;;;;;;;3.47;1.50;;;18.00;47.60;;;;;;4953013;28;93807;-65
2022/05/04 11:56:09;;;;;;;3.55;1.52;;;18.00;47.70;;;;;;4953213;28;93065;-66
2022/05/04 11:58:36;;;;;;;3.45;1.70;;;18.00;47.70;;;;;;4953739;28;92878;-65
2022/05/04 12:01:04;;;;;;;2.95;1.73;;;18.00;47.70;;;;;;4951669;28;96492;-65
2022/05/04 12:03:32;;;;;;;2.95;1.80;;;18.10;47.80;;;;;;4953309;28;96254;-65
2022/05/04 12:06:01;;;;;;;3.47;1.90;;;18.10;48.80;;;;;;4953015;28;93090;-65
2022/05/04 12:08:27;;;;;;;3.55;1.63;;;18.10;47.80;;;;;;4952715;28;92505;-64
2022/05/04 12:10:53;;;;;;;3.03;1.70;;;18.10;47.80;;;;;;4934230;28;93600;-64
2022/05/04 12:13:22;;;;;;;4.35;1.73;;;18.10;47.90;;;;;;4952982;28;94155;-64
2022/05/04 12:15:49;;;;;;;2.67;1.70;;;18.10;47.80;;;;;;4952246;28;92597;-64
2022/05/04 12:18:15;;;;;;;4.40;1.92;;;18.10;47.90;;;;;;4953269;28;92059;-64
2022/05/04 12:20:46;;;;;;;2.42;1.60;;;18.10;47.90;;;;;;4951556;28;93185;-64
2022/05/04 12:23:12;;;;;;;2.72;1.60;;;18.10;47.90;;;;;;4952444;28;94368;-65
2022/05/04 12:25:39;;;;;;;2.88;1.67;;;18.00;47.90;;;;;;4951422;28;94955;-65
2022/05/04 12:28:05;;;;;;;4.15;1.70;;;18.10;47.90;;;;;;4952809;28;92915;-65
2022/05/04 12:33:15;;;;;;;2.70;1.80;;;18.00;47.90;;;;;;4951812;28;92667;-64
2022/05/04 12:35:45;;;;;;;2.50;1.52;;;18.00;48.00;;;;;;4952566;28;93132;-65
2022/05/04 12:38:19;;;;;;;3.20;1.70;;;18.00;47.90;;;;;;4953086;28;92920;-64
2022/05/04 12:40:45;;;;;;;3.63;1.83;;;18.00;47.90;;;;;;4952714;28;94152;-64
2022/05/04 12:43:12;;;;;;;3.72;1.85;;;18.00;47.90;;;;;;4953151;28;94827;-64
2022/05/04 12:45:38;;;;;;;3.65;1.75;;;18.00;47.90;;;;;;4952193;28;92855;-64
2022/05/04 12:48:09;;;;;;;3.97;1.90;;;18.00;47.90;;;;;;4953436;28;92507;-64
2022/05/04 12:50:36;;;;;;;4.22;1.95;;;18.10;48.00;;;;;;4951458;28;96141;-64
2022/05/04 12:53:03;;;;;;;3.45;1.70;;;18.10;48.00;;;;;;4952567;28;97782;-64
2022/05/04 12:58:14;;;;;;;2.15;1.48;;;18.10;48.00;;;;;;4953369;28;92541;-64
2022/05/04 13:00:40;;;;;;;3.10;1.80;;;18.10;47.90;;;;;;4952387;28;94609;-64
2022/05/04 13:03:08;;;;;;;3.58;1.90;;;18.10;47.90;;;;;;4951555;28;94154;-64
2022/05/04 13:05:34;;;;;;;4.35;1.80;;;18.10;47.90;;;;;;4952508;28;92423;-65
2022/05/04 13:07:59;;;;;;;2.80;1.70;;;18.10;47.90;;;;;;4951689;28;92423;-65
2022/05/04 13:10:25;;;;;;;3.40;1.80;;;18.10;47.90;;;;;;4951070;28;113722;-64
2022/05/04 13:12:51;;;;;;;2.70;1.70;;;18.10;47.90;;;;;;4952561;28;93670;-64
2022/05/04 13:15:18;;;;;;;3.05;1.65;;;18.10;47.90;;;;;;4951186;28;95310;-64
2022/05/04 13:17:43;;;;;;;2.05;1.55;;;18.10;47.90;;;;;;4953056;28;92503;-64
2022/05/04 13:20:09;;;;;;;2.30;1.67;;;18.10;47.80;;;;;;4951455;28;94581;-64
2022/05/04 13:22:36;;;;;;;3.53;1.80;;;18.10;47.90;;;;;;4951233;28;94161;-64
2022/05/04 13:25:02;;;;;;;4.57;2.30;;;18.10;47.90;;;;;;4951936;28;92642;-64
2022/05/04 13:27:27;;;;;;;3.58;1.70;;;18.10;48.00;;;;;;4952106;28;92760;-65
2022/05/04 13:29:53;;;;;;;2.33;1.70;;;18.10;47.90;;;;;;4951506;28;94240;-66
2022/05/04 13:32:18;;;;;;;4.28;2.15;;;18.10;47.90;;;;;;4951842;28;101594;-65
2022/05/04 13:34:44;;;;;;;2.80;1.90;;;18.10;47.80;;;;;;4951290;28;97589;-66
2022/05/04 13:37:09;;;;;;;4.55;2.47;;;18.10;47.90;;;;;;4952089;28;93873;-65
2022/05/04 13:39:35;;;;;;;3.22;2.10;;;18.10;47.80;;;;;;4949685;28;96543;-65
2022/05/04 13:42:03;;;;;;;3.95;1.88;;;18.10;47.80;;;;;;4951148;28;95832;-65
2022/05/04 13:44:28;;;;;;;3.42;2.00;;;18.10;47.90;;;;;;4950841;28;92894;-66
2022/05/04 13:46:55;;;;;;;2.10;1.60;;;18.10;47.80;;;;;;4952458;28;92510;-65
2022/05/04 13:49:21;;;;;;;2.88;2.00;;;18.10;47.90;;;;;;4951467;28;95030;-65
2022/05/04 13:54:31;;;;;;;4.38;1.95;;;18.10;47.80;;;;;;4951463;28;92561;-64
2022/05/04 13:56:57;;;;;;;4.38;2.28;;;18.10;47.90;;;;;;4952061;28;91717;-66
2022/05/04 13:59:24;;;;;;;3.45;2.00;;;18.10;48.00;;;;;;4951210;28;94182;-65
2022/05/04 14:01:50;;;;;;;4.03;2.30;;;18.10;48.00;;;;;;4950933;28;94692;-66
2022/05/04 14:04:16;;;;;;;3.33;2.20;;;18.10;47.90;;;;;;4951064;28;95445;-65
2022/05/04 14:06:43;;;;;;;4.18;2.05;;;18.10;47.90;;;;;;4950942;28;92681;-65
2022/05/04 14:09:09;;;;;;;4.60;2.20;;;18.10;47.80;;;;;;4949840;28;94589;-65
2022/05/04 14:11:34;;;;;;;3.70;2.15;;;18.10;47.90;;;;;;4950077;28;92865;-66
2022/05/04 14:16:44;;;;;;;4.32;2.28;;;18.10;48.00;;;;;;4950098;28;92580;-65
2022/05/04 14:19:10;;;;;;;3.33;2.28;;;18.10;48.00;;;;;;4949949;28;93907;-65
2022/05/04 14:21:36;;;;;;;3.45;2.15;;;18.10;48.00;;;;;;4949384;28;92892;-65
2022/05/04 14:24:02;;;;;;;4.82;2.35;;;18.10;48.00;;;;;;4950594;28;92578;-65
2022/05/04 14:26:28;;;;;;;5.05;2.25;;;18.10;48.00;;;;;;4949759;28;92547;-66
2022/05/04 14:28:54;;;;;;;4.43;2.30;;;18.10;48.00;;;;;;4948717;28;98403;-65
2022/05/04 14:31:20;;;;;;;4.13;2.10;;;18.10;48.00;;;;;;4949409;28;95447;-65